createdAt,value
2023-03-27T00:00:40.840Z,0.55
2023-03-27T00:05:41.932Z,0.54
2023-03-27T00:10:42.784Z,0.55
2023-03-27T00:15:43.606Z,0.55
2023-03-27T00:20:44.744Z,0.55
2023-03-27T00:25:45.578Z,0.55
2023-03-27T00:30:46.458Z,0.54
2023-03-27T00:35:47.710Z,0.56
2023-03-27T00:40:48.605Z,0.56
2023-03-27T00:45:49.545Z,0.54
2023-03-27T00:50:50.645Z,0.55
2023-03-27T00:55:51.521Z,0.54
2023-03-27T01:00:52.444Z,0.54
2023-03-27T01:05:53.555Z,0.54
2023-03-27T01:10:54.825Z,0.54
2023-03-27T01:15:55.316Z,0.54
2023-03-27T01:20:56.668Z,0.54
2023-03-27T01:25:57.686Z,0.54
2023-03-27T01:30:58.869Z,0.54
2023-03-27T01:35:59.406Z,0.53
2023-03-27T01:41:00.481Z,0.54
2023-03-27T01:46:01.372Z,0.54
2023-03-27T01:51:02.236Z,0.54
2023-03-27T01:56:03.365Z,0.53
2023-03-27T02:01:04.392Z,0.54
2023-03-27T02:06:05.302Z,0.54
2023-03-27T02:11:06.427Z,0.54
2023-03-27T02:16:07.354Z,0.53
2023-03-27T02:21:08.231Z,0.54
2023-03-27T02:26:09.365Z,0.53
2023-03-27T02:31:33.115Z,0.54
2023-03-27T02:36:12.310Z,0.54
2023-03-27T02:41:12.204Z,0.54
2023-03-27T02:46:13.383Z,0.53
2023-03-27T02:51:14.285Z,0.53
2023-03-27T02:56:15.157Z,0.54
2023-03-27T03:01:16.339Z,0.53
2023-03-27T03:06:17.177Z,0.53
2023-03-27T03:11:18.060Z,0.53
2023-03-27T03:16:19.234Z,0.53
2023-03-27T03:21:20.161Z,0.53
2023-03-27T03:26:21.007Z,0.53
2023-03-27T03:31:22.207Z,0.53
2023-03-27T03:36:23.096Z,0.51
2023-03-27T03:41:23.982Z,0.50
2023-03-27T03:46:25.130Z,0.51
2023-03-27T03:51:25.970Z,0.51
2023-03-27T03:56:26.825Z,0.50
2023-03-27T04:01:28.124Z,0.50
2023-03-27T04:06:29.140Z,0.50
2023-03-27T04:11:29.962Z,0.50
2023-03-27T04:16:31.130Z,0.51
2023-03-27T04:21:32.051Z,0.51
2023-03-27T04:26:32.845Z,0.50
2023-03-27T04:31:33.968Z,0.51
2023-03-27T04:36:34.826Z,0.51
2023-03-27T04:41:35.635Z,0.51
2023-03-27T04:46:36.716Z,0.50
2023-03-27T04:51:37.494Z,0.50
2023-03-27T04:56:38.331Z,0.52
2023-03-27T05:01:39.431Z,0.51
2023-03-27T05:06:40.762Z,0.52
2023-03-27T05:11:41.037Z,0.50
2023-03-27T05:16:42.098Z,0.51
2023-03-27T05:21:42.835Z,0.50
2023-03-27T05:26:43.600Z,0.51
2023-03-27T05:31:44.610Z,0.51
2023-03-27T05:36:45.368Z,0.51
2023-03-27T05:41:46.134Z,0.51
2023-03-27T05:46:47.146Z,0.51
2023-03-27T05:51:47.925Z,0.51
2023-03-27T05:56:48.726Z,0.50
2023-03-27T06:01:49.748Z,0.52
2023-03-27T06:06:50.503Z,0.52
2023-03-27T06:11:51.280Z,3.47
2023-03-27T06:16:52.302Z,4.97
2023-03-27T06:21:53.071Z,4.05
2023-03-27T06:26:53.852Z,3.10
2023-03-27T06:31:54.882Z,2.33
2023-03-27T06:36:55.637Z,1.93
2023-03-27T06:41:56.377Z,1.68
2023-03-27T06:46:57.428Z,1.52
2023-03-27T06:51:58.208Z,1.37
2023-03-27T06:56:59.029Z,1.39
2023-03-27T07:02:00.052Z,1.55
2023-03-27T07:07:00.850Z,1.45
2023-03-27T07:12:01.589Z,1.37
2023-03-27T07:17:02.603Z,1.35
2023-03-27T07:22:03.359Z,1.25
2023-03-27T07:27:04.092Z,1.19
2023-03-27T07:32:09.112Z,1.10
2023-03-27T07:37:05.966Z,1.03
2023-03-27T07:42:07.007Z,1.00
2023-03-27T07:47:07.766Z,0.91
2023-03-27T07:52:08.507Z,0.86
2023-03-27T07:57:09.535Z,0.81
2023-03-27T08:02:10.243Z,0.77
2023-03-27T08:07:10.975Z,0.76
2023-03-27T08:12:12.018Z,0.72
2023-03-27T08:17:16.194Z,0.68
2023-03-27T08:22:13.660Z,0.65
2023-03-27T08:27:14.663Z,0.64
2023-03-27T08:32:15.404Z,0.63
2023-03-27T08:37:16.140Z,0.62
2023-03-27T08:42:18.913Z,0.58
2023-03-27T08:47:17.987Z,0.58
2023-03-27T08:52:18.735Z,0.56
2023-03-27T08:57:19.773Z,0.55
2023-03-27T09:02:20.532Z,0.53
2023-03-27T09:07:21.223Z,0.52
2023-03-27T09:12:22.224Z,0.52
2023-03-27T09:17:23.054Z,0.51
2023-03-27T09:22:23.743Z,0.51
2023-03-27T09:27:24.723Z,0.51
2023-03-27T09:32:25.467Z,0.52
2023-03-27T09:37:26.168Z,0.52
2023-03-27T09:42:27.145Z,0.53
2023-03-27T09:47:27.880Z,0.53
2023-03-27T09:52:28.609Z,0.57
2023-03-27T09:57:29.535Z,0.58
2023-03-27T10:02:30.222Z,0.56
2023-03-27T10:07:30.902Z,0.55
2023-03-27T10:12:31.803Z,0.54
2023-03-27T10:17:32.485Z,0.53
2023-03-27T10:22:33.147Z,0.52
2023-03-27T10:27:34.075Z,0.51
2023-03-27T10:32:34.818Z,0.50
2023-03-27T10:37:35.531Z,0.51
2023-03-27T10:42:36.493Z,0.50
2023-03-27T10:47:37.245Z,0.52
2023-03-27T10:52:38.037Z,0.50
2023-03-27T10:57:39.000Z,0.52
2023-03-27T11:02:39.740Z,0.51
2023-03-27T11:07:40.521Z,0.52
2023-03-27T11:12:41.469Z,0.52
2023-03-27T11:17:42.249Z,0.51
2023-03-27T11:22:42.893Z,0.51
2023-03-27T11:27:44.049Z,0.50
2023-03-27T11:32:44.772Z,0.50
2023-03-27T11:37:45.437Z,0.51
2023-03-27T11:42:46.382Z,0.51
2023-03-27T11:47:47.106Z,0.50
2023-03-27T11:52:47.815Z,0.51
2023-03-27T11:57:48.775Z,0.51
2023-03-27T12:02:49.667Z,0.51
2023-03-27T12:07:49.927Z,0.51
2023-03-27T12:12:50.613Z,0.50
2023-03-27T12:17:51.643Z,0.50
2023-03-27T12:22:52.297Z,0.51
2023-03-27T12:27:52.964Z,0.50
2023-03-27T12:32:55.362Z,0.51
2023-03-27T12:37:54.586Z,0.52
2023-03-27T12:42:55.273Z,0.50
2023-03-27T12:47:56.238Z,0.51
2023-03-27T12:52:56.885Z,0.56
2023-03-27T12:57:57.718Z,0.59
2023-03-27T13:02:58.758Z,0.60
2023-03-27T13:07:59.431Z,0.61
2023-03-27T13:13:00.090Z,0.68
2023-03-27T13:18:01.062Z,0.68
2023-03-27T13:23:01.723Z,0.72
2023-03-27T13:28:02.333Z,0.72
2023-03-27T13:33:03.327Z,0.71
2023-03-27T13:38:03.960Z,0.67
2023-03-27T13:43:04.607Z,0.64
2023-03-27T13:48:05.517Z,0.61
2023-03-27T13:53:06.234Z,0.60
2023-03-27T13:58:06.879Z,0.63
2023-03-27T14:03:07.968Z,0.78
2023-03-27T14:08:08.705Z,0.76
2023-03-27T14:13:09.418Z,0.83
2023-03-27T14:18:10.357Z,0.84
2023-03-27T14:23:11.048Z,0.84
2023-03-27T14:28:11.744Z,0.91
2023-03-27T14:33:12.699Z,0.97
2023-03-27T14:38:13.377Z,0.92
2023-03-27T14:43:14.060Z,0.95
2023-03-27T14:48:15.041Z,0.95
